« 定点 富山空港 2019/6/16 sun | トップページ | 定点 富山空港 2019/6/19 wed »

2019/06/17

順光 成田国際空港 2019/5/25 sat

風変 成田国際空港 2019/5/25 sat

からつづき

Aランが逆光となってきたので、2タミに移動して記録を続けます。

RJAA 250400Z 13013KT 9999 FEW030 27/19 Q1016 NOSIG RMK 1CU030 A3000

20190525_rjaa_300b8863

CES523 ZSPD-RJAA B-8863 A330-343

20190525_rjaa_301ja14va

VNL915 RJAA-RJCC JA14VA A320-214

20190525_rjaa_302rpc3347

CEB5054 RPLL-RJAA RP-C3347 A330-343

20190525_rjaa_303rpc3237

CEB5062 RPVM-RJAA RP-C3237 A320-214

20190525_rjaa_304b1980

CSN8383 ZHCC-RJAA B-1980 B737-86N

20190525_rjaa_305hl7790

ASV701 RKSI-RJAA HL7790 A321-231

20190525_rjaa_306ja08jj

JJP504 RJFF-RJAA JA08JJ A320-232

20190525_rjaa_307b18902

CAL100 RCTP-RJAA B-18902 A350-941

20190525_rjaa_308blrs

CPA526 VHHH-RJAA B-LRS A350-941

20190525_rjaa_309blrs

急激に勢力を拡大して、珍しい機体ではなくなってます。

20190525_rjaa_310hsxtj

TAX602 VTBD-RJAA HS-XTJ A330-343

20190525_rjaa_311hsxtj

20190525_rjaa_312ja01gr

SOJ622 RJOA-RJAA JA01GR B737-81D

RJAA 250430Z 15012KT 9999 FEW030 27/18 Q1016 NOSIG RMK 1CU030 A3001

20190525_rjaa_313ju1015

MOL501 ZMUB-RJAA JU-1015 B737-8SH

20190525_rjaa_314n751an

AAL175 KDFW-RJAA N751AN B777-223ER

20190525_rjaa_315ja861j

JAL408 EDDF-RJAA JA861J B787-9

20190525_rjaa_316ja16jj

JJP107 RJAA-RJCC JA16JJ A320-232

20190525_rjaa_317fosun

THT78 NTAA-RJAA F-OSUN A340-313

20190525_rjaa_318ja02va

VNL807 RJAA-ROAH JA02VA A320-214

20190525_rjaa_319b1912

CXA815 ZSAM-RJAA B-1912 B737-85C

20190525_rjaa_320ja11jj

JJP622 RJFK-RJAA JA11JJ A320-232

20190525_rjaa_321b1538

CHH7927 ZLXY-RJAA B-1538 B737-84P

20190525_rjaa_322b5918

CCA929 ZSPD-RJAA B-5918 A330-243

20190525_rjaa_323rpc9925

PAL434 RPVM-RJAA RP-C9925 A321-231

20190525_rjaa_324vna899

HVN302 VVTS-RJAA VN-A899 A350-941

20190525_rjaa_325ja890a

ANA802 WSSS-RJAA JA890A B787-9

20190525_rjaa_326ja13jj

JJP625 RJAA-RJFK JA13JJ A320-232

20190525_rjaa_327ja8286

ANA8514 VHHH-RJAA JA8286 B767-381ERBCF

RJAA 250500Z 12010KT 090V150 CAVOK 27/18 Q1016 NOSIG RMK A3000

20190525_rjaa_328ja612a

ANA922 ZSPD-RJAA JA612A B767-381ER

20190525_rjaa_329ja612j

JAL785 PHNL-RJAA JA612A B767-346ER

20190525_rjaa_330ja03va

VNL917 RJAA-RJCC JA03VA A320-214

20190525_rjaa_331hl8062

JJA1105 RJAA-RKSI HL8062 B737-8AS

20190525_rjaa_332b8863

CSE524 RJAA-ZSPD B-8863 A330-343

やばいっ、ちょとノンビリし過ぎた。搭乗時間が真近で、離脱しまーす。

|

« 定点 富山空港 2019/6/16 sun | トップページ | 定点 富山空港 2019/6/19 wed »

成田国際空港」カテゴリの記事

コメント

コメントを書く



(ウェブ上には掲載しません)


コメントは記事投稿者が公開するまで表示されません。



« 定点 富山空港 2019/6/16 sun | トップページ | 定点 富山空港 2019/6/19 wed »